• Join FlightAware (Why Join?)
  • Login
  • US Flag 
06:12PM EST


 

Airport Tracker/Info


-or-


 

Live Flight TrackerFlight Track Log ✈ ANA9397 ✈ 17-Apr-2013 ✈ PANC - RJCC / CTS

Flight Track Log - Related Links

Times and Time Zones

All times are in EDT time to prevent confusion due to time zone crossing. See the ANA9397 flight status page for this flight to view local times or setup timezone preferences in your user account.

Time Position Orientation Groundspeed Altitude Reporting Facility
EDT Latitude Longitude Course Direction KTS MPH feet Rate Location/Type
04:49PM 61.2050 -150.0200 345° North 163 188 1,600  Level FlightAware
04:49PM 61.2130 -150.0330 322° Northwest 162 186 2,500 3,300 Climbing FlightAware
04:50PM 61.2300 -150.0620 321° Northwest 168 193 4,100 3,060 Climbing FlightAware
04:50PM 61.2390 -150.0860 308° West 192 221 4,800 2,640 Climbing FlightAware
04:50PM 61.2400 -150.1060 276° West 209 241 5,200 3,120 Climbing FlightAware
04:51PM 61.2420 -150.1690 274° West 224 258 6,900 2,700 Climbing FlightAware
04:51PM 61.2440 -150.2350 274° West 264 304 7,900 2,400 Climbing FlightAware
04:52PM 61.2460 -150.3040 273° West 289 333 9,100 3,060 Climbing FlightAware
04:52PM 61.2490 -150.4330 273° West 305 351 11,500 3,300 Climbing FlightAware
04:53PM 61.2530 -150.5580 274° West 325 374 13,800 3,360 Climbing FlightAware
04:54PM 61.2550 -150.6670 272° West 336 387 15,700 3,000 Climbing FlightAware
04:55PM 61.2600 -150.8240 274° West 351 404 18,100 3,300 Climbing FlightAware
04:55PM 61.2630 -150.9570 273° West 338 389 20,700 4,080 Climbing FlightAware
04:56PM 61.2660 -151.0990 273° West 311 358 23,900 3,420 Climbing FlightAware
04:57PM 61.2690 -151.2160 273° West 309 356 25,600 2,220 Climbing FlightAware
04:57PM 61.2710 -151.3380 272° West 320 368 26,900 1,620 Climbing FlightAware
04:58PM 61.2740 -151.4830 273° West 341 392 27,900 1,380 Climbing FlightAware
04:59PM 61.2770 -151.6150 273° West 355 409 28,900 1,440 Climbing FlightAware
04:59PM 61.2790 -151.7750 272° West 370 426 30,000 1,560 Climbing FlightAware
05:00PM 61.2830 -151.9690 273° West 373 429 31,500 1,320 Climbing FlightAware
05:01PM 61.2840 -152.1130 271° West 385 443 32,100 1,020 Climbing FlightAware
05:02PM 61.2850 -152.2870 271° West 394 453 33,000 1,080 Climbing FlightAware
05:02PM 61.2850 -152.3990 270° West 400 460 33,500 1,020 Climbing FlightAware
05:03PM 61.2860 -152.5900 271° West 408 470 34,400 900 Climbing FlightAware
05:05PM 61.2860 -153.0400 270° West 429 494 36,000 840 Climbing FlightAware
05:06PM 61.2850 -153.3300 270° West 431 496 37,100 1,140 Climbing FlightAware
05:07PM 61.2840 -153.6110 270° West 415 478 38,700 1,020 Climbing FlightAware
05:09PM 61.2820 -153.8880 269° West 416 479 39,500 540 Climbing FlightAware
05:10PM 61.2800 -154.1730 269° West 421 484 40,000 180 Climbing FlightAware
05:11PM 61.2770 -154.4490 269° West 424 488 40,000  Level FlightAware
05:12PM 61.2760 -154.5880 269° West 424 488 40,000  Level FlightAware
05:12PM 61.2730 -154.7710 268° West 425 489 40,000  Level FlightAware
05:13PM 61.2710 -154.9380 269° West 425 489 40,000  Level FlightAware
05:14PM 61.2700 -155.0770 269° West 425 489 40,000  Level FlightAware
05:14PM 61.2690 -155.2160 269° West 425 489 40,000  Level FlightAware
05:15PM 61.2680 -155.3550 269° West 425 489 40,000  Level FlightAware
05:16PM 61.2660 -155.5290 269° West 425 489 40,000  Level FlightAware
05:16PM 61.2650 -155.6680 269° West 425 489 40,000  Level FlightAware
05:17PM 61.2640 -155.8070 269° West 425 489 40,000  Level FlightAware
05:18PM 61.2630 -155.9110 269° West 425 489 40,000  Level FlightAware
05:18PM 61.2620 -156.0500 269° West 425 489 40,000  Level FlightAware
05:19PM 61.2610 -156.1890 269° West 425 489 40,000  Level FlightAware
05:20PM 61.2590 -156.3280 268° West 425 489 40,000  Level FlightAware
05:20PM 61.2580 -156.5020 269° West 425 489 40,000  Level FlightAware
05:21PM 61.2570 -156.6410 269° West 425 489 40,000  Level FlightAware
05:22PM 61.2560 -156.7800 269° West 425 489 40,000  Level FlightAware
05:23PM 61.2500 -157.3167 269° West 420 483 40,000  Level Anchorage Center
05:24PM 61.2500 -157.5667 270° West 420 483 40,000  Level Anchorage Center
05:25PM 61.2333 -157.8000 262° West 420 483 40,000  Level Anchorage Center
05:27PM 61.2333 -158.2500 270° West 410 472 40,000  Level Anchorage Center
05:28PM 61.2333 -158.5333 270° West 420 483 40,000  Level Anchorage Center
05:29PM 61.2333 -158.7833 270° West 420 483 40,000  Level Anchorage Center
05:30PM 61.2333 -159.0167 270° West 420 483 40,000  Level Anchorage Center
05:31PM 61.2333 -159.2667 270° West 420 483 40,000  Level Anchorage Center
05:32PM 61.2167 -159.5000 262° West 410 472 40,000  Level Anchorage Center
05:33PM 61.2167 -159.7500 270° West 410 472 40,000  Level Anchorage Center
05:34PM 61.2167 -159.9833 270° West 410 472 40,000  Level Anchorage Center
05:35PM 61.2000 -160.2167 262° West 410 472 40,000  Level Anchorage Center
05:36PM 61.2000 -160.4667 270° West 410 472 40,000  Level Anchorage Center
05:37PM 61.1833 -160.7000 262° West 410 472 40,000  Level Anchorage Center
05:38PM 61.1833 -160.9333 270° West 420 483 40,000  Level Anchorage Center
05:39PM 61.1833 -161.1833 270° West 410 472 40,000  Level Anchorage Center
05:40PM 61.1667 -161.4167 262° West 420 483 40,000  Level Anchorage Center
05:41PM 61.1667 -161.6667 270° West 420 483 40,000  Level Anchorage Center
05:42PM 61.1500 -161.9167 262° West 410 472 40,000  Level Anchorage Center
05:43PM 61.1500 -162.1500 270° West 420 483 40,000  Level Anchorage Center
05:44PM 61.1333 -162.3833 262° West 410 472 40,000  Level Anchorage Center
05:45PM 61.1167 -162.6333 262° West 430 495 40,000  Level Anchorage Center
05:46PM 61.1167 -162.8833 270° West 420 483 40,000  Level Anchorage Center
05:47PM 61.1000 -163.1167 262° West 420 483 40,000  Level Anchorage Center
05:48PM 61.0500 -163.3500 246° West 430 495 40,000  Level Anchorage Center
05:49PM 61.0167 -163.6000 255° West 430 495 40,000  Level Anchorage Center
05:50PM 60.9833 -163.8333 254° West 430 495 40,000  Level Anchorage Center
05:51PM 60.9500 -164.0667 254° West 420 483 40,000  Level Anchorage Center
05:52PM 60.9167 -164.3000 254° West 420 483 40,000  Level Anchorage Center
05:53PM 60.8833 -164.5333 254° West 420 483 40,000  Level Anchorage Center
05:54PM 60.8500 -164.7667 254° West 430 495 40,000  Level Anchorage Center
05:55PM 60.8167 -165.0000 254° West 420 483 40,000  Level Anchorage Center
05:56PM 60.7833 -165.2333 254° West 420 483 40,000  Level Anchorage Center
05:57PM 60.7333 -165.4500 245° Southwest 420 483 40,000  Level Anchorage Center
05:58PM 60.7167 -165.6500 260° West 420 483 40,000  Level Anchorage Center
05:59PM 60.6667 -165.8667 245° Southwest 420 483 40,000  Level Anchorage Center
06:00PM 60.6333 -166.1000 254° West 430 495 40,000  Level Anchorage Center
06:01PM 60.6000 -166.3333 254° West 420 483 40,000  Level Anchorage Center
06:02PM 60.5667 -166.5667 254° West 430 495 40,000  Level Anchorage Center
06:03PM 60.5167 -166.8000 247° West 420 483 40,000  Level Anchorage Center
06:04PM 60.4833 -167.0333 254° West 430 495 40,000  Level Anchorage Center
06:05PM 60.4333 -167.2500 245° Southwest 430 495 40,000  Level Anchorage Center
06:06PM 60.4000 -167.4833 254° West 430 495 40,000  Level Anchorage Center
06:07PM 60.3500 -167.7167 247° West 440 506 40,000  Level Anchorage Center
06:08PM 60.3167 -167.9500 254° West 430 495 40,000  Level Anchorage Center
06:09PM 60.2667 -168.1833 247° West 430 495 40,000  Level Anchorage Center
06:10PM 60.2333 -168.4000 253° West 430 495 40,000  Level Anchorage Center
06:11PM 60.1833 -168.6333 247° West 430 495 40,000  Level Anchorage Center
06:12PM 60.1500 -168.8500 253° West 430 495 40,000  Level Anchorage Center
06:13PM 60.1000 -169.0833 247° West 420 483 40,000  Level Anchorage Center
06:14PM 60.0667 -169.3000 253° West 420 483 40,000  Level Anchorage Center
06:15PM 60.0167 -169.5333 247° West 430 495 40,000  Level Anchorage Center
06:16PM 59.9667 -169.7667 247° West 440 506 40,000  Level Anchorage Center
06:17PM 59.9333 -169.9833 253° West 430 495 40,000  Level Anchorage Center
06:18PM 59.8833 -170.2000 245° Southwest 430 495 40,000  Level Anchorage Center
06:19PM 59.8333 -170.4500 248° West 420 483 40,000  Level Anchorage Center
06:20PM 59.7833 -170.6667 245° Southwest 420 483 40,000  Level Anchorage Center
06:21PM 59.7500 -170.9000 254° West 430 495 40,000  Level Anchorage Center
06:22PM 59.7000 -171.1167 245° Southwest 440 506 40,000  Level Anchorage Center
06:23PM 59.6500 -171.3500 247° West 440 506 40,000  Level Anchorage Center
06:24PM 59.6000 -171.5667 246° West 430 495 40,000  Level Anchorage Center
06:25PM 59.5500 -171.7833 246° West 430 495 40,000  Level Anchorage Center
06:26PM 59.5000 -172.0000 246° West 430 495 40,000  Level Anchorage Center
06:27PM 59.4667 -172.2333 254° West 450 518 40,000  Level Anchorage Center
06:28PM 59.4167 -172.4667 247° West 440 506 40,000  Level Anchorage Center
06:29PM 59.3667 -172.6833 246° West 430 495 40,000  Level Anchorage Center
06:30PM 59.3167 -172.9167 247° West 440 506 40,000  Level Anchorage Center
06:31PM 59.2667 -173.1333 246° West 450 518 40,000  Level Anchorage Center
06:32PM 59.2333 -173.3667 254° West 450 518 40,000  Level Anchorage Center
06:33PM 59.1833 -173.5833 246° West 450 518 40,000  Level Anchorage Center
06:34PM 59.1333 -173.8167 247° West 440 506 40,000  Level Anchorage Center
06:35PM 59.0833 -174.0333 246° West 440 506 40,000 180 Level Anchorage Center
06:36PM 59.0333 -174.2500 246° West 440 506 40,400 480 Climbing Anchorage Center
06:37PM 58.9833 -174.4667 246° West 440 506 41,000 300 Climbing Anchorage Center
06:38PM 58.9333 -174.6833 246° West 430 495 41,000  Level Anchorage Center
06:39PM 58.8833 -174.9167 248° West 440 506 41,000  Level Anchorage Center
06:40PM 58.8333 -175.1333 246° West 440 506 41,000  Level Anchorage Center
06:41PM 58.7833 -175.3500 246° West 430 495 41,000  Level Anchorage Center
06:42PM 58.7333 -175.5667 246° West 440 506 41,000  Level Anchorage Center
06:43PM 58.6833 -175.7833 246° West 440 506 41,000  Level Anchorage Center
06:44PM 58.6333 -175.9833 244° Southwest 430 495 41,000  Level Anchorage Center
06:45PM 58.5833 -176.2000 246° West 430 495 41,000  Level Anchorage Center
06:46PM 58.5333 -176.4167 246° West 430 495 41,000  Level Anchorage Center
06:47PM 58.4833 -176.6333 246° West 440 506 41,000  Level Anchorage Center
06:48PM 58.4333 -176.8333 245° Southwest 440 506 41,000  Level Anchorage Center
06:49PM 58.3833 -177.0500 246° West 440 506 41,000  Level Anchorage Center
06:50PM 58.3333 -177.2667 246° West 440 506 41,000  Level Anchorage Center
06:51PM 58.2833 -177.4667 245° Southwest 420 483 41,000  Level Anchorage Center
06:53PM 58.1946 -177.8210 245° Southwest  Level FlightAware Approximate
07:00PM 57.8298 -179.2207 244° Southwest  Level FlightAware Approximate
07:01PM 57.7765 -179.4183 243° Southwest  Level FlightAware Approximate
07:02PM 57.7228 -179.6153 243° Southwest  Level FlightAware Approximate
07:03PM 57.6688 -179.8117 243° Southwest  Level FlightAware Approximate
07:04PM 57.6145 179.9925 242° Southwest  Level FlightAware Approximate
07:05PM 57.5592 179.7980 242° Southwest  Level FlightAware Approximate
07:06PM 57.5036 179.6040 242° Southwest  Level FlightAware Approximate
07:07PM 57.4477 179.4107 242° Southwest  Level FlightAware Approximate
07:08PM 57.3914 179.2179 242° Southwest  Level FlightAware Approximate
07:09PM 57.3349 179.0258 241° Southwest  Level FlightAware Approximate
07:10PM 57.2781 178.8342 241° Southwest  Level FlightAware Approximate
07:11PM 57.2210 178.6432 241° Southwest  Level FlightAware Approximate
07:12PM 57.1637 178.4528 241° Southwest  Level FlightAware Approximate
07:13PM 57.1060 178.2630 241° Southwest  Level FlightAware Approximate
07:14PM 57.0480 178.0739 241° Southwest  Level FlightAware Approximate
07:15PM 56.9898 177.8852 241° Southwest  Level FlightAware Approximate
07:16PM 56.9313 177.6972 240° Southwest  Level FlightAware Approximate
07:17PM 56.8725 177.5098 240° Southwest  Level FlightAware Approximate
07:18PM 56.8134 177.3229 240° Southwest  Level FlightAware Approximate
07:19PM 56.7542 177.1365 240° Southwest  Level FlightAware Approximate
07:20PM 56.6947 176.9506 240° Southwest  Level FlightAware Approximate
07:21PM 56.6350 176.7654 240° Southwest  Level FlightAware Approximate
07:22PM 56.5750 176.5807 240° Southwest  Level FlightAware Approximate
07:23PM 56.5147 176.3966 239° Southwest  Level FlightAware Approximate
07:24PM 56.4541 176.2131 239° Southwest  Level FlightAware Approximate
07:24PM 56.3333 175.8167 238° Southwest 460 529 41,000  Level Anchorage Center
07:25PM 56.3933 176.0302 239° Southwest  Level FlightAware Approximate
07:25PM 56.2667 175.6500 234° Southwest 450 518 41,000  Level Anchorage Center
07:26PM 56.3322 175.8479 239° Southwest  Level FlightAware Approximate
07:26PM 56.2000 175.4333 241° Southwest 450 518 41,000  Level Anchorage Center
07:27PM 56.2708 175.6661 239° Southwest  Level FlightAware Approximate
07:27PM 56.1333 175.2833 231° Southwest 440 506 41,000  Level Anchorage Center
07:28PM 56.2092 175.4850 239° Southwest  Level FlightAware Approximate
07:28PM 56.0667 175.0667 241° Southwest 450 518 41,000  Level Anchorage Center
07:29PM 56.1473 175.3044 238° Southwest  Level FlightAware Approximate
07:29PM 56.0167 174.9000 242° Southwest 460 529 41,000  Level Anchorage Center
07:30PM 56.0851 175.1244 238° Southwest  Level FlightAware Approximate
07:30PM 55.9333 174.7000 233° Southwest 450 518 41,000  Level Anchorage Center
07:31PM 55.8667 174.4833 241° Southwest 450 518 41,000  Level Anchorage Center
07:32PM 55.8000 174.3333 232° Southwest 450 518 41,000  Level Anchorage Center
07:33PM 55.7333 174.1333 239° Southwest 440 506 41,000  Level Anchorage Center
07:34PM 55.6667 173.9667 235° Southwest 450 518 41,000  Level Anchorage Center
07:35PM 55.6000 173.7667 240° Southwest 450 518 41,000  Level Anchorage Center
07:36PM 55.5333 173.6000 235° Southwest 450 518 41,000  Level Anchorage Center
07:37PM 55.4667 173.4000 240° Southwest 450 518 41,000  Level Anchorage Center
07:38PM 55.4000 173.2333 235° Southwest 450 518 41,000  Level Anchorage Center
07:39PM 55.3333 173.0333 240° Southwest 460 529 41,000  Level Anchorage Center
07:40PM 55.2500 172.8333 234° Southwest 450 518 41,000  Level Anchorage Center
07:41PM 55.2000 172.6667 242° Southwest 450 518 41,000  Level Anchorage Center
07:42PM 55.1167 172.4833 232° Southwest 440 506 41,000  Level Anchorage Center
07:43PM 55.0500 172.3333 232° Southwest 440 506 41,000  Level Anchorage Center
07:44PM 54.9833 172.1167 242° Southwest 450 518 41,000  Level Anchorage Center
07:45PM 54.9167 171.9667 232° Southwest 450 518 41,000  Level Anchorage Center
07:46PM 54.8333 171.7833 232° Southwest 440 506 41,000  Level Anchorage Center
07:47PM 54.7667 171.5833 240° Southwest 440 506 41,000  Level Anchorage Center
07:48PM 54.7000 171.4333 232° Southwest 460 529 41,000  Level Anchorage Center
07:49PM 54.6167 171.2333 234° Southwest 450 518 41,000  Level Anchorage Center
07:50PM 54.5500 171.0833 233° Southwest 450 518 41,000  Level Anchorage Center
07:51PM 54.4667 170.8833 234° Southwest 460 529 41,000  Level Anchorage Center
07:52PM 54.4000 170.7500 229° Southwest 440 506 41,000  Level Anchorage Center
07:53PM 54.3333 170.5667 238° Southwest 440 506 41,000  Level Anchorage Center
07:54PM 54.2500 170.4000 229° Southwest 470 541 41,000  Level Anchorage Center
07:55PM 54.1833 170.2167 238° Southwest 450 518 41,000  Level Anchorage Center
07:56PM 54.1000 170.0333 232° Southwest 460 529 41,000  Level Anchorage Center
07:57PM 54.0333 169.8833 233° Southwest 450 518 41,000  Level Anchorage Center
07:58PM 53.9500 169.7000 232° Southwest 450 518 41,000  Level Anchorage Center
07:59PM 53.8833 169.5500 233° Southwest 450 518 41,000  Level Anchorage Center
08:00PM 53.8000 169.3500 235° Southwest 470 541 41,000  Level Anchorage Center
08:01PM 53.7333 169.2167 230° Southwest 460 529 41,000  Level Anchorage Center
08:02PM 53.6667 169.0167 241° Southwest 460 529 41,000  Level Anchorage Center
08:03PM 53.6000 168.8000 243° Southwest 460 529 41,000  Level Anchorage Center
08:04PM 53.5333 168.6333 236° Southwest 480 552 41,000  Level Anchorage Center
08:05PM 53.4667 168.4333 241° Southwest 480 552 41,000  Level Anchorage Center
08:07PM 53.3500 168.0667 242° Southwest 490 564 41,000  Level Anchorage Center
08:10PM 53.2555 167.7985 240° Southwest  Level FlightAware Approximate
08:17PM 52.8304 166.6272 239° Southwest  Level FlightAware Approximate
08:18PM 52.7687 166.4618 238° Southwest  Level FlightAware Approximate
08:19PM 52.7068 166.2968 238° Southwest  Level FlightAware Approximate
08:20PM 52.6447 166.1323 238° Southwest  Level FlightAware Approximate
08:21PM 52.5823 165.9683 238° Southwest  Level FlightAware Approximate
08:22PM 52.5198 165.8047 238° Southwest  Level FlightAware Approximate
08:23PM 52.4570 165.6416 238° Southwest  Level FlightAware Approximate
08:24PM 52.3940 165.4789 238° Southwest  Level FlightAware Approximate
08:25PM 52.3307 165.3168 238° Southwest  Level FlightAware Approximate
08:26PM 52.2673 165.1550 237° Southwest  Level FlightAware Approximate
08:27PM 52.2036 164.9938 237° Southwest  Level FlightAware Approximate
08:28PM 52.1397 164.8330 237° Southwest  Level FlightAware Approximate
08:29PM 52.0756 164.6727 237° Southwest  Level FlightAware Approximate
08:30PM 52.0112 164.5128 237° Southwest  Level FlightAware Approximate
08:31PM 51.9467 164.3534 237° Southwest  Level FlightAware Approximate
08:32PM 51.8819 164.1945 237° Southwest  Level FlightAware Approximate
08:33PM 51.8169 164.0360 236° Southwest  Level FlightAware Approximate
08:34PM 51.7517 163.8779 236° Southwest  Level FlightAware Approximate
08:35PM 51.6863 163.7204 236° Southwest  Level FlightAware Approximate
08:36PM 51.6207 163.5632 236° Southwest  Level FlightAware Approximate
08:37PM 51.5550 163.4064 236° Southwest  Level FlightAware Approximate
08:38PM 51.4891 163.2500 236° Southwest  Level FlightAware Approximate
08:39PM 51.4230 163.0941 236° Southwest  Level FlightAware Approximate
08:40PM 51.3567 162.9387 236° Southwest  Level FlightAware Approximate
08:41PM 51.2902 162.7837 236° Southwest  Level FlightAware Approximate
08:42PM 51.2235 162.6291 235° Southwest  Level FlightAware Approximate
08:43PM 51.1565 162.4750 235° Southwest  Level FlightAware Approximate
08:44PM 51.0894 162.3214 235° Southwest  Level FlightAware Approximate
08:45PM 51.0221 162.1682 235° Southwest  Level FlightAware Approximate
08:46PM 50.9545 162.0154 235° Southwest  Level FlightAware Approximate
08:47PM 50.8868 161.8631 235° Southwest  Level FlightAware Approximate
08:48PM 50.8189 161.7112 235° Southwest  Level FlightAware Approximate
08:49PM 50.7508 161.5598 235° Southwest  Level FlightAware Approximate
08:50PM 50.6824 161.4088 235° Southwest  Level FlightAware Approximate
08:51PM 50.6139 161.2583 234° Southwest  Level FlightAware Approximate
08:52PM 50.5452 161.1081 234° Southwest  Level FlightAware Approximate
08:53PM 50.4763 160.9585 234° Southwest  Level FlightAware Approximate
08:54PM 50.4072 160.8092 234° Southwest  Level FlightAware Approximate
08:55PM 50.3379 160.6604 234° Southwest  Level FlightAware Approximate
08:56PM 50.2685 160.5120 234° Southwest  Level FlightAware Approximate
08:57PM 50.1988 160.3641 234° Southwest  Level FlightAware Approximate
08:58PM 50.1295 160.2159 234° Southwest  Level FlightAware Approximate
08:59PM 50.0600 160.0682 234° Southwest  Level FlightAware Approximate
09:00PM 49.9904 159.9209 234° Southwest  Level FlightAware Approximate
09:01PM 49.9205 159.7740 234° Southwest  Level FlightAware Approximate
09:02PM 49.8507 159.6280 233° Southwest  Level FlightAware Approximate
09:03PM 49.7806 159.4823 233° Southwest  Level FlightAware Approximate
09:04PM 49.7063 159.3500 180° South  Level FlightAware Approximate
09:05PM 49.6396 159.2098 233° Southwest  Level FlightAware Approximate
09:06PM 49.5689 159.0657 233° Southwest  Level FlightAware Approximate
09:07PM 49.4979 158.9220 233° Southwest  Level FlightAware Approximate
09:08PM 49.4267 158.7787 233° Southwest  Level FlightAware Approximate
09:09PM 49.3554 158.6358 233° Southwest  Level FlightAware Approximate
09:10PM 49.2839 158.4934 232° Southwest  Level FlightAware Approximate
09:11PM 49.2122 158.3513 232° Southwest  Level FlightAware Approximate
09:12PM 49.1404 158.2097 232° Southwest  Level FlightAware Approximate
09:13PM 49.0684 158.0684 232° Southwest  Level FlightAware Approximate
09:14PM 48.9962 157.9276 232° Southwest  Level FlightAware Approximate
09:15PM 48.9238 157.7872 232° Southwest  Level FlightAware Approximate
09:16PM 48.8513 157.6472 232° Southwest  Level FlightAware Approximate
09:17PM 48.7786 157.5076 232° Southwest  Level FlightAware Approximate
09:18PM 48.7057 157.3684 232° Southwest  Level FlightAware Approximate
09:19PM 48.6327 157.2296 232° Southwest  Level FlightAware Approximate
09:20PM 48.5595 157.0912 231° Southwest  Level FlightAware Approximate
09:21PM 48.4861 156.9532 231° Southwest  Level FlightAware Approximate
09:22PM 48.4126 156.8157 231° Southwest  Level FlightAware Approximate
09:23PM 48.3389 156.6785 231° Southwest  Level FlightAware Approximate
09:24PM 48.2650 156.5417 231° Southwest  Level FlightAware Approximate
09:25PM 48.1910 156.4053 231° Southwest  Level FlightAware Approximate
09:26PM 48.1168 156.2693 231° Southwest  Level FlightAware Approximate
09:27PM 48.0425 156.1337 231° Southwest  Level FlightAware Approximate
09:28PM 47.9680 155.9984 231° Southwest  Level FlightAware Approximate
09:29PM 47.8933 155.8636 230° Southwest  Level FlightAware Approximate
09:30PM 47.8185 155.7292 230° Southwest  Level FlightAware Approximate
09:31PM 47.7435 155.5951 230° Southwest  Level FlightAware Approximate
09:32PM 47.6684 155.4615 230° Southwest  Level FlightAware Approximate
09:33PM 47.5931 155.3282 230° Southwest  Level FlightAware Approximate
09:34PM 47.5177 155.1953 230° Southwest  Level FlightAware Approximate
09:35PM 47.4421 155.0627 230° Southwest  Level FlightAware Approximate
09:36PM 47.3664 154.9306 230° Southwest  Level FlightAware Approximate
09:37PM 47.2905 154.7988 230° Southwest  Level FlightAware Approximate
09:38PM 47.2144 154.6675 230° Southwest  Level FlightAware Approximate
09:39PM 47.1382 154.5365 229° Southwest  Level FlightAware Approximate
09:40PM 47.0619 154.4058 229° Southwest  Level FlightAware Approximate
09:41PM 46.9854 154.2756 229° Southwest  Level FlightAware Approximate
09:42PM 46.9088 154.1457 229° Southwest  Level FlightAware Approximate
09:43PM 46.8320 154.0162 229° Southwest  Level FlightAware Approximate
09:44PM 46.7551 153.8871 229° Southwest  Level FlightAware Approximate
09:45PM 46.6780 153.7583 229° Southwest  Level FlightAware Approximate
09:46PM 46.6008 153.6299 229° Southwest  Level FlightAware Approximate
09:47PM 46.5234 153.5018 229° Southwest  Level FlightAware Approximate
09:48PM 46.4459 153.3742 229° Southwest  Level FlightAware Approximate
09:49PM 46.3683 153.2469 229° Southwest  Level FlightAware Approximate
09:50PM 46.2905 153.1199 228° Southwest  Level FlightAware Approximate
09:51PM 46.2125 152.9934 228° Southwest  Level FlightAware Approximate
09:52PM 46.1339 152.8679 228° Southwest  Level FlightAware Approximate
09:53PM 46.0551 152.7428 228° Southwest  Level FlightAware Approximate
09:54PM 45.9761 152.6180 228° Southwest  Level FlightAware Approximate
09:55PM 45.8971 152.4937 228° Southwest  Level FlightAware Approximate
09:56PM 45.8179 152.3696 228° Southwest  Level FlightAware Approximate
09:57PM 45.7385 152.2459 227° Southwest  Level FlightAware Approximate
09:58PM 45.6591 152.1226 227° Southwest  Level FlightAware Approximate
09:59PM 45.5795 151.9996 227° Southwest  Level FlightAware Approximate
10:00PM 45.4997 151.8770 227° Southwest  Level FlightAware Approximate
10:01PM 45.4199 151.7547 227° Southwest  Level FlightAware Approximate
10:02PM 45.3399 151.6327 227° Southwest  Level FlightAware Approximate
10:03PM 45.2598 151.5111 227° Southwest  Level FlightAware Approximate
10:04PM 45.1795 151.3899 227° Southwest  Level FlightAware Approximate
10:05PM 45.0991 151.2690 227° Southwest  Level FlightAware Approximate
10:06PM 45.0186 151.1484 227° Southwest  Level FlightAware Approximate
10:07PM 44.9380 151.0282 227° Southwest  Level FlightAware Approximate
10:08PM 44.8572 150.9082 226° Southwest  Level FlightAware Approximate
10:09PM 44.7763 150.7887 226° Southwest  Level FlightAware Approximate
10:10PM 44.6953 150.6695 226° Southwest  Level FlightAware Approximate
10:11PM 44.6142 150.5506 226° Southwest  Level FlightAware Approximate
10:12PM 44.5330 150.4320 226° Southwest  Level FlightAware Approximate
10:13PM 44.4516 150.3138 226° Southwest  Level FlightAware Approximate
10:14PM 44.3701 150.1959 226° Southwest  Level FlightAware Approximate
10:15PM 44.2885 150.0783 226° Southwest  Level FlightAware Approximate
10:16PM 44.2067 149.9611 226° Southwest  Level FlightAware Approximate
10:17PM 44.1249 149.8441 226° Southwest  Level FlightAware Approximate
10:18PM 44.0429 149.7275 226° Southwest  Level FlightAware Approximate
10:19PM 43.9608 149.6113 226° Southwest  Level FlightAware Approximate
10:20PM 43.8786 149.4953 225° Southwest  Level FlightAware Approximate
10:21PM 43.7962 149.3797 225° Southwest  Level FlightAware Approximate
10:22PM 43.7138 149.2643 225° Southwest  Level FlightAware Approximate
10:23PM 43.6312 149.1493 225° Southwest  Level FlightAware Approximate
10:24PM 43.5486 149.0347 225° Southwest  Level FlightAware Approximate
10:24PM 43.4130 148.8480 225° Southwest 396 456 41,000  Level FlightAware
10:25PM 43.4658 148.9203 225° Southwest  Level FlightAware Approximate
10:25PM 43.3630 148.7790 225° Southwest 398 458 41,000  Level FlightAware
10:26PM 43.3010 148.6940 225° Southwest 405 466 41,000  Level FlightAware
10:26PM 43.2530 148.6290 225° Southwest 406 467 41,000  Level FlightAware
10:27PM 43.1950 148.5500 225° Southwest 406 467 41,000  Level FlightAware
10:28PM 43.1420 148.4770 225° Southwest 406 467 41,000  Level FlightAware
10:28PM 43.0760 148.3880 225° Southwest 405 466 41,000  Level FlightAware
10:29PM 43.0190 148.3110 225° Southwest 405 466 41,000  Level FlightAware
10:30PM 42.9700 148.2440 225° Southwest 396 456 41,000  Level FlightAware
10:30PM 42.9070 148.1600 224° Southwest 395 455 41,000  Level FlightAware
10:31PM 42.8620 148.0990 225° Southwest 394 453 41,000  Level FlightAware
10:32PM 42.8010 148.0180 224° Southwest 393 452 41,000  Level FlightAware
10:32PM 42.7510 147.9520 224° Southwest 391 450 41,000  Level FlightAware
10:33PM 42.6960 147.8780 225° Southwest 391 450 41,000  Level FlightAware
10:34PM 42.6320 147.7930 224° Southwest 390 449 41,000  Level FlightAware
10:35PM 42.5440 147.6770 224° Southwest 391 450 41,000  Level FlightAware
10:36PM 42.4890 147.6050 224° Southwest 392 451 41,000  Level FlightAware
10:36PM 42.4390 147.5380 225° Southwest 400 460 41,000  Level FlightAware
10:37PM 42.3710 147.4490 224° Southwest 402 463 41,000  Level FlightAware
10:38PM 42.3260 147.3900 224° Southwest 403 464 41,000  Level FlightAware
10:39PM 42.2420 147.2810 224° Southwest 403 464 41,000  Level FlightAware
10:40PM 42.1820 147.2030 224° Southwest 401 461 41,000  Level FlightAware
10:40PM 42.1280 147.1320 224° Southwest 400 460 41,000  Level FlightAware
10:41PM 42.0570 147.0410 224° Southwest 398 458 41,000  Level FlightAware
10:42PM 42.0060 146.9740 224° Southwest 398 458 41,000  Level FlightAware
10:43PM 41.9470 146.8970 224° Southwest 387 445 41,000  Level FlightAware
10:43PM 41.9340 146.8620 243° Southwest 387 445 41,000  Level FlightAware
10:44PM 41.9450 146.7380 277° West 391 450 41,000  Level FlightAware
10:44PM 41.9670 146.6490 288° West 389 448 41,000  Level FlightAware
10:45PM 41.9920 146.5460 288° West 388 447 41,000  Level FlightAware
10:46PM 42.0160 146.4440 288° West 388 447 41,000  Level FlightAware
10:47PM 42.0380 146.3520 288° West 390 449 41,000  Level FlightAware
10:47PM 42.0640 146.2460 288° West 388 447 41,000  Level FlightAware
10:48PM 42.0860 146.1510 287° West 388 447 41,000  Level FlightAware
10:49PM 42.1110 146.0450 288° West 385 443 41,000  Level FlightAware
10:49PM 42.1320 145.9560 288° West 383 441 41,000  Level FlightAware
10:50PM 42.1530 145.8660 287° West 381 438 41,000  Level FlightAware
10:51PM 42.1830 145.7380 288° West 380 437 41,000  Level FlightAware
10:52PM 42.2050 145.6430 287° West 379 436 41,000  Level FlightAware
10:52PM 42.2260 145.5520 287° West 378 435 41,000  Level FlightAware
10:53PM 42.2460 145.4630 287° West 377 434 41,000  Level FlightAware
10:55PM 42.3130 145.1710 287° West 375 432 41,000  Level FlightAware
10:56PM 42.3330 145.0800 287° West 377 434 41,000  Level FlightAware
10:56PM 42.3520 144.9980 287° West 376 433 41,000  Level FlightAware
10:58PM 42.3660 144.8560 278° West 374 430 41,000  Level FlightAware
10:58PM 42.3730 144.7610 276° West 374 430 41,000 -120 Level FlightAware
10:59PM 42.3810 144.6560 276° West 373 429 40,900 -600 Descending FlightAware
11:00PM 42.3880 144.5610 276° West 365 420 40,200 -1,020 Descending FlightAware
11:01PM 42.3970 144.4360 276° West 365 420 39,300 -900 Descending FlightAware
11:01PM 42.4050 144.3370 276° West 358 412 38,700 -960 Descending FlightAware
11:02PM 42.4120 144.2460 276° West 348 400 38,000 -1,020 Descending FlightAware
11:03PM 42.4190 144.1490 276° West 337 388 37,200 -1,320 Descending FlightAware
11:03PM 42.4250 144.0580 275° West 315 362 36,100 -2,340 Descending FlightAware
11:04PM 42.4320 143.9670 276° West 318 366 33,700 -2,640 Descending FlightAware
11:05PM 42.4370 143.8830 275° West 317 365 32,200 -2,160 Descending FlightAware
11:06PM 42.4440 143.7930 276° West 309 356 30,700 -1,860 Descending FlightAware
11:06PM 42.4490 143.7230 276° West 302 348 29,600 -1,740 Descending FlightAware
11:07PM 42.4560 143.6180 275° West 290 334 28,000 -1,680 Descending FlightAware
11:08PM 42.4610 143.5410 275° West 284 327 26,800 -1,680 Descending FlightAware
11:09PM 42.4660 143.4650 275° West 279 321 25,500 -1,860 Descending FlightAware
11:09PM 42.4710 143.3920 275° West 276 318 24,200 -2,340 Descending FlightAware
11:10PM 42.4750 143.3230 275° West 284 327 22,400 -2,400 Descending FlightAware
11:11PM 42.4820 143.2170 275° West 284 327 20,200 -1,860 Descending FlightAware
11:12PM 42.4870 143.1430 275° West 283 326 19,300 -1,080 Descending FlightAware
11:13PM 42.4920 143.0520 274° West 276 318 18,500 -960 Descending FlightAware
11:14PM 42.4980 142.9550 275° West 270 311 17,600 -1,080 Descending FlightAware
11:14PM 42.5030 142.8750 275° West 265 305 16,700 -1,440 Descending FlightAware
11:15PM 42.5060 142.8200 274° West 263 303 15,700 -1,740 Descending FlightAware
11:16PM 42.5110 142.7420 275° West 263 303 14,300 -1,740 Descending FlightAware
11:16PM 42.5160 142.6740 276° West 261 300 13,100 -1,080 Descending FlightAware
11:17PM 42.5210 142.6150 277° West 229 264 12,900 -720 Descending FlightAware
11:18PM 42.5280 142.5520 279° West 217 250 12,100 -1,140 Descending FlightAware
11:19PM 42.5330 142.4990 277° West 212 244 11,300 -1,440 Descending FlightAware
11:19PM 42.5380 142.4380 276° West 220 253 10,100 -1,920 Descending FlightAware
11:20PM 42.5400 142.4020 274° West 238 274 9,100 -1,860 Descending FlightAware
11:20PM 42.5410 142.3580 272° West 243 280 8,400 -1,140 Descending FlightAware
11:21PM 42.5330 142.3200 254° West 232 267 8,100 -360 Descending FlightAware
11:21PM 42.5230 142.2790 252° West 231 266 8,100  Level FlightAware
11:22PM 42.5140 142.2450 250° West 231 266 8,100 -240 Level FlightAware
11:22PM 42.5040 142.2030 252° West 231 266 7,900 -1,020 Descending FlightAware
11:23PM 42.4940 142.1600 253° West 236 272 7,100 -1,380 Descending FlightAware
11:23PM 42.4950 142.1020 271° West 241 277 6,300 -1,320 Descending FlightAware
11:24PM 42.5020 142.0570 282° West 240 276 5,600 -1,320 Descending FlightAware
11:24PM 42.5080 142.0200 282° West 239 275 5,100 -1,380 Descending FlightAware
11:24PM 42.5110 141.9980 280° West 238 274 4,700 -1,380 Descending FlightAware
11:25PM 42.5170 141.9540 280° West 235 270 4,100 -1,200 Descending FlightAware
11:25PM 42.5210 141.9300 283° West 233 268 3,800 -1,200 Descending FlightAware
11:26PM 42.5260 141.8940 281° West 233 268 3,300 -1,200 Descending FlightAware
11:26PM 42.5330 141.8500 282° West 234 269 2,700 -1,200 Descending FlightAware
11:26PM 42.5410 141.8230 292° West 234 269 2,300 -660 Descending FlightAware
11:27PM 42.5540 141.7760 291° West 231 266 2,100 -240 Descending FlightAware
11:27PM 42.5660 141.7440 297° West 226 260 2,100  Level FlightAware
11:28PM 42.5790 141.7330 328° Northwest 213 245 2,100  Level FlightAware
11:29PM 42.6440 141.7170 350° North 149 171 2,100 -240 Level FlightAware
11:30PM 42.6910 141.7090 353° North 135 155 1,600 -540 Descending FlightAware
11:31PM 42.7360 141.7010 353° North 117 135 800 -720 Descending FlightAware